sensor_id;sensor_type;location;lat;lon;timestamp;P1;durP1;ratioP1;P2;durP2;ratioP2
43540;SDS011;29549;40.386;-3.710;2023-10-09T00:00:29;11.90;;;7.40;;
43540;SDS011;29549;40.386;-3.710;2023-10-09T00:01:00;15.77;;;8.25;;
43540;SDS011;29549;40.386;-3.710;2023-10-09T00:01:23;16.65;;;8.48;;
43540;SDS011;29549;40.386;-3.710;2023-10-09T00:01:33;15.68;;;8.68;;
43540;SDS011;29549;40.386;-3.710;2023-10-09T00:01:44;16.52;;;9.18;;
43540;SDS011;29549;40.386;-3.710;2023-10-09T00:01:56;15.70;;;9.20;;
43540;SDS011;29549;40.386;-3.710;2023-10-09T00:02:09;14.02;;;8.50;;
43540;SDS011;29549;40.386;-3.710;2023-10-09T00:02:20;14.20;;;7.82;;
43540;SDS011;29549;40.386;-3.710;2023-10-09T00:02:31;12.90;;;7.40;;
43540;SDS011;29549;40.386;-3.710;2023-10-09T00:02:42;13.00;;;7.80;;
43540;SDS011;29549;40.386;-3.710;2023-10-09T00:02:53;12.90;;;8.00;;
43540;SDS011;29549;40.386;-3.710;2023-10-09T00:03:04;14.38;;;7.95;;
43540;SDS011;29549;40.386;-3.710;2023-10-09T00:03:19;13.10;;;7.43;;
43540;SDS011;29549;40.386;-3.710;2023-10-09T00:03:33;12.13;;;7.72;;
43540;SDS011;29549;40.386;-3.710;2023-10-09T00:03:47;12.90;;;8.02;;
43540;SDS011;29549;40.386;-3.710;2023-10-09T00:04:03;12.52;;;7.80;;
43540;SDS011;29549;40.386;-3.710;2023-10-09T00:04:14;12.55;;;8.35;;
43540;SDS011;29549;40.386;-3.710;2023-10-09T00:04:26;12.48;;;8.23;;
43540;SDS011;29549;40.386;-3.710;2023-10-09T00:04:37;12.50;;;8.17;;
43540;SDS011;29549;40.386;-3.710;2023-10-09T00:04:51;13.25;;;8.23;;
43540;SDS011;29549;40.386;-3.710;2023-10-09T00:05:02;14.13;;;8.80;;
43540;SDS011;29549;40.386;-3.710;2023-10-09T00:05:22;15.13;;;9.77;;
43540;SDS011;29549;40.386;-3.710;2023-10-09T00:05:38;15.88;;;10.85;;
43540;SDS011;29549;40.386;-3.710;2023-10-09T00:05:55;19.27;;;12.63;;
43540;SDS011;29549;40.386;-3.710;2023-10-09T00:06:06;19.58;;;13.18;;
43540;SDS011;29549;40.386;-3.710;2023-10-09T00:06:17;20.90;;;14.27;;
43540;SDS011;29549;40.386;-3.710;2023-10-09T00:06:34;24.20;;;16.77;;
43540;SDS011;29549;40.386;-3.710;2023-10-09T00:06:47;21.77;;;15.85;;
43540;SDS011;29549;40.386;-3.710;2023-10-09T00:06:58;19.73;;;13.88;;
43540;SDS011;29549;40.386;-3.710;2023-10-09T00:07:10;19.80;;;13.45;;
43540;SDS011;29549;40.386;-3.710;2023-10-09T00:07:21;20.42;;;12.90;;
43540;SDS011;29549;40.386;-3.710;2023-10-09T00:07:33;19.63;;;11.73;;
43540;SDS011;29549;40.386;-3.710;2023-10-09T00:07:44;17.80;;;11.00;;
43540;SDS011;29549;40.386;-3.710;2023-10-09T00:07:55;17.13;;;10.25;;
43540;SDS011;29549;40.386;-3.710;2023-10-09T00:08:07;14.80;;;9.38;;
43540;SDS011;29549;40.386;-3.710;2023-10-09T00:08:19;14.80;;;8.52;;
43540;SDS011;29549;40.386;-3.710;2023-10-09T00:08:42;16.98;;;8.23;;
43540;SDS011;29549;40.386;-3.710;2023-10-09T00:08:55;17.25;;;8.60;;
43540;SDS011;29549;40.386;-3.710;2023-10-09T00:09:08;17.17;;;8.77;;
43540;SDS011;29549;40.386;-3.710;2023-10-09T00:09:35;15.55;;;8.68;;
43540;SDS011;29549;40.386;-3.710;2023-10-09T00:09:58;13.23;;;9.05;;
43540;SDS011;29549;40.386;-3.710;2023-10-09T00:10:10;13.98;;;9.02;;
43540;SDS011;29549;40.386;-3.710;2023-10-09T00:10:22;15.80;;;9.05;;
43540;SDS011;29549;40.386;-3.710;2023-10-09T00:10:45;16.48;;;9.35;;
43540;SDS011;29549;40.386;-3.710;2023-10-09T00:10:59;16.65;;;9.48;;
43540;SDS011;29549;40.386;-3.710;2023-10-09T00:11:23;16.92;;;9.65;;
43540;SDS011;29549;40.386;-3.710;2023-10-09T00:11:40;14.88;;;9.43;;
43540;SDS011;29549;40.386;-3.710;2023-10-09T00:11:54;15.23;;;9.63;;
43540;SDS011;29549;40.386;-3.710;2023-10-09T00:12:10;16.42;;;9.32;;
43540;SDS011;29549;40.386;-3.710;2023-10-09T00:12:20;15.33;;;9.13;;
43540;SDS011;29549;40.386;-3.710;2023-10-09T00:12:35;14.80;;;9.50;;
43540;SDS011;29549;40.386;-3.710;2023-10-09T00:12:46;14.52;;;9.80;;
43540;SDS011;29549;40.386;-3.710;2023-10-09T00:12:59;16.38;;;9.95;;
43540;SDS011;29549;40.386;-3.710;2023-10-09T00:13:09;16.88;;;10.20;;
43540;SDS011;29549;40.386;-3.710;2023-10-09T00:13:21;15.80;;;9.93;;
43540;SDS011;29549;40.386;-3.710;2023-10-09T00:13:40;15.48;;;9.43;;
43540;SDS011;29549;40.386;-3.710;2023-10-09T00:14:01;17.98;;;9.70;;
43540;SDS011;29549;40.386;-3.710;2023-10-09T00:14:15;16.90;;;9.20;;
43540;SDS011;29549;40.386;-3.710;2023-10-09T00:14:29;15.52;;;9.35;;
43540;SDS011;29549;40.386;-3.710;2023-10-09T00:14:44;15.27;;;9.32;;
43540;SDS011;29549;40.386;-3.710;2023-10-09T00:14:58;14.38;;;8.70;;
43540;SDS011;29549;40.386;-3.710;2023-10-09T00:15:19;16.92;;;9.07;;
43540;SDS011;29549;40.386;-3.710;2023-10-09T00:15:32;17.38;;;9.32;;
43540;SDS011;29549;40.386;-3.710;2023-10-09T00:15:43;17.48;;;9.10;;
43540;SDS011;29549;40.386;-3.710;2023-10-09T00:16:04;14.13;;;8.25;;
43540;SDS011;29549;40.386;-3.710;2023-10-09T00:16:24;13.98;;;8.13;;
43540;SDS011;29549;40.386;-3.710;2023-10-09T00:16:45;15.98;;;8.38;;
43540;SDS011;29549;40.386;-3.710;2023-10-09T00:16:59;16.85;;;8.48;;
43540;SDS011;29549;40.386;-3.710;2023-10-09T00:17:22;15.45;;;7.93;;
43540;SDS011;29549;40.386;-3.710;2023-10-09T00:17:33;14.90;;;8.10;;
43540;SDS011;29549;40.386;-3.710;2023-10-09T00:17:44;15.90;;;8.02;;
43540;SDS011;29549;40.386;-3.710;2023-10-09T00:17:57;14.88;;;8.10;;
43540;SDS011;29549;40.386;-3.710;2023-10-09T00:18:08;13.35;;;8.35;;
43540;SDS011;29549;40.386;-3.710;2023-10-09T00:18:22;13.23;;;8.48;;
43540;SDS011;29549;40.386;-3.710;2023-10-09T00:18:39;13.80;;;8.30;;
43540;SDS011;29549;40.386;-3.710;2023-10-09T00:18:56;17.26;;;8.82;;
43540;SDS011;29549;40.386;-3.710;2023-10-09T00:19:22;14.48;;;9.15;;
43540;SDS011;29549;40.386;-3.710;2023-10-09T00:19:43;15.48;;;10.32;;
43540;SDS011;29549;40.386;-3.710;2023-10-09T00:19:58;15.10;;;9.70;;
43540;SDS011;29549;40.386;-3.710;2023-10-09T00:20:10;15.63;;;9.32;;
43540;SDS011;29549;40.386;-3.710;2023-10-09T00:20:30;17.90;;;9.25;;
43540;SDS011;29549;40.386;-3.710;2023-10-09T00:20:48;16.77;;;8.93;;
43540;SDS011;29549;40.386;-3.710;2023-10-09T00:21:04;14.85;;;8.43;;
43540;SDS011;29549;40.386;-3.710;2023-10-09T00:21:22;15.93;;;8.27;;
43540;SDS011;29549;40.386;-3.710;2023-10-09T00:21:37;13.88;;;8.00;;
43540;SDS011;29549;40.386;-3.710;2023-10-09T00:21:48;13.40;;;7.95;;
43540;SDS011;29549;40.386;-3.710;2023-10-09T00:22:00;12.57;;;7.95;;
43540;SDS011;29549;40.386;-3.710;2023-10-09T00:22:14;11.27;;;7.78;;
43540;SDS011;29549;40.386;-3.710;2023-10-09T00:22:34;11.60;;;7.65;;
43540;SDS011;29549;40.386;-3.710;2023-10-09T00:22:51;12.05;;;7.60;;
43540;SDS011;29549;40.386;-3.710;2023-10-09T00:23:02;12.90;;;7.17;;
43540;SDS011;29549;40.386;-3.710;2023-10-09T00:23:19;13.65;;;7.35;;
43540;SDS011;29549;40.386;-3.710;2023-10-09T00:23:29;13.48;;;7.55;;
43540;SDS011;29549;40.386;-3.710;2023-10-09T00:23:44;12.40;;;7.53;;
43540;SDS011;29549;40.386;-3.710;2023-10-09T00:23:54;13.23;;;8.05;;
43540;SDS011;29549;40.386;-3.710;2023-10-09T00:24:09;14.13;;;8.25;;
43540;SDS011;29549;40.386;-3.710;2023-10-09T00:24:35;14.62;;;9.48;;
43540;SDS011;29549;40.386;-3.710;2023-10-09T00:24:46;13.65;;;9.25;;
43540;SDS011;29549;40.386;-3.710;2023-10-09T00:25:00;13.15;;;8.48;;
43540;SDS011;29549;40.386;-3.710;2023-10-09T00:25:20;13.40;;;8.38;;
43540;SDS011;29549;40.386;-3.710;2023-10-09T00:25:39;15.77;;;9.02;;
43540;SDS011;29549;40.386;-3.710;2023-10-09T00:26:01;15.00;;;9.32;;
43540;SDS011;29549;40.386;-3.710;2023-10-09T00:26:26;13.85;;;9.00;;
43540;SDS011;29549;40.386;-3.710;2023-10-09T00:26:40;15.55;;;9.55;;
43540;SDS011;29549;40.386;-3.710;2023-10-09T00:26:55;16.67;;;9.40;;
43540;SDS011;29549;40.386;-3.710;2023-10-09T00:27:06;18.05;;;9.23;;
43540;SDS011;29549;40.386;-3.710;2023-10-09T00:27:26;18.90;;;8.90;;
43540;SDS011;29549;40.386;-3.710;2023-10-09T00:27:43;16.63;;;8.80;;
43540;SDS011;29549;40.386;-3.710;2023-10-09T00:27:56;16.25;;;8.98;;
43540;SDS011;29549;40.386;-3.710;2023-10-09T00:28:09;17.98;;;9.00;;
43540;SDS011;29549;40.386;-3.710;2023-10-09T00:28:21;17.40;;;9.30;;
43540;SDS011;29549;40.386;-3.710;2023-10-09T00:28:33;16.95;;;9.88;;
43540;SDS011;29549;40.386;-3.710;2023-10-09T00:28:48;16.10;;;10.30;;
43540;SDS011;29549;40.386;-3.710;2023-10-09T00:29:01;16.42;;;10.20;;
43540;SDS011;29549;40.386;-3.710;2023-10-09T00:29:15;17.58;;;10.20;;
43540;SDS011;29549;40.386;-3.710;2023-10-09T00:29:32;15.25;;;9.80;;
43540;SDS011;29549;40.386;-3.710;2023-10-09T00:29:46;15.38;;;9.75;;
43540;SDS011;29549;40.386;-3.710;2023-10-09T00:29:58;19.23;;;10.23;;
43540;SDS011;29549;40.386;-3.710;2023-10-09T00:30:10;19.13;;;10.20;;
43540;SDS011;29549;40.386;-3.710;2023-10-09T00:30:25;17.00;;;9.95;;
43540;SDS011;29549;40.386;-3.710;2023-10-09T00:30:43;16.45;;;10.32;;
43540;SDS011;29549;40.386;-3.710;2023-10-09T00:30:53;18.02;;;10.57;;
43540;SDS011;29549;40.386;-3.710;2023-10-09T00:31:04;18.45;;;10.07;;
43540;SDS011;29549;40.386;-3.710;2023-10-09T00:31:18;15.70;;;9.32;;
43540;SDS011;29549;40.386;-3.710;2023-10-09T00:31:43;15.85;;;9.25;;
43540;SDS011;29549;40.386;-3.710;2023-10-09T00:32:00;15.18;;;9.77;;
43540;SDS011;29549;40.386;-3.710;2023-10-09T00:32:23;16.42;;;10.82;;
43540;SDS011;29549;40.386;-3.710;2023-10-09T00:32:36;17.33;;;10.93;;
43540;SDS011;29549;40.386;-3.710;2023-10-09T00:32:52;17.50;;;10.95;;
43540;SDS011;29549;40.386;-3.710;2023-10-09T00:33:17;17.02;;;10.60;;
43540;SDS011;29549;40.386;-3.710;2023-10-09T00:33:32;16.85;;;10.45;;
43540;SDS011;29549;40.386;-3.710;2023-10-09T00:33:44;14.27;;;10.30;;
43540;SDS011;29549;40.386;-3.710;2023-10-09T00:33:55;15.00;;;10.10;;
43540;SDS011;29549;40.386;-3.710;2023-10-09T00:34:11;16.08;;;10.82;;
43540;SDS011;29549;40.386;-3.710;2023-10-09T00:34:29;17.00;;;11.82;;
43540;SDS011;29549;40.386;-3.710;2023-10-09T00:34:39;19.10;;;11.95;;
43540;SDS011;29549;40.386;-3.710;2023-10-09T00:34:51;20.20;;;12.00;;
43540;SDS011;29549;40.386;-3.710;2023-10-09T00:35:01;21.50;;;11.98;;
43540;SDS011;29549;40.386;-3.710;2023-10-09T00:35:36;14.00;;;10.15;;
43540;SDS011;29549;40.386;-3.710;2023-10-09T00:35:56;14.68;;;10.40;;
43540;SDS011;29549;40.386;-3.710;2023-10-09T00:36:08;14.05;;;10.23;;
43540;SDS011;29549;40.386;-3.710;2023-10-09T00:36:19;14.02;;;9.73;;
43540;SDS011;29549;40.386;-3.710;2023-10-09T00:36:38;13.40;;;8.68;;
43540;SDS011;29549;40.386;-3.710;2023-10-09T00:37:00;15.77;;;8.52;;
43540;SDS011;29549;40.386;-3.710;2023-10-09T00:37:14;16.73;;;8.55;;
43540;SDS011;29549;40.386;-3.710;2023-10-09T00:37:34;14.82;;;8.27;;
43540;SDS011;29549;40.386;-3.710;2023-10-09T00:37:45;14.15;;;8.25;;
43540;SDS011;29549;40.386;-3.710;2023-10-09T00:37:56;13.90;;;8.10;;
43540;SDS011;29549;40.386;-3.710;2023-10-09T00:38:11;14.30;;;7.97;;
43540;SDS011;29549;40.386;-3.710;2023-10-09T00:38:43;11.77;;;7.80;;
43540;SDS011;29549;40.386;-3.710;2023-10-09T00:39:01;11.57;;;8.02;;
43540;SDS011;29549;40.386;-3.710;2023-10-09T00:39:21;11.18;;;7.68;;
43540;SDS011;29549;40.386;-3.710;2023-10-09T00:39:51;15.18;;;7.68;;
43540;SDS011;29549;40.386;-3.710;2023-10-09T00:40:08;17.13;;;8.23;;
43540;SDS011;29549;40.386;-3.710;2023-10-09T00:40:30;14.57;;;8.10;;
43540;SDS011;29549;40.386;-3.710;2023-10-09T00:40:43;12.23;;;7.97;;
43540;SDS011;29549;40.386;-3.710;2023-10-09T00:41:02;12.52;;;9.15;;
43540;SDS011;29549;40.386;-3.710;2023-10-09T00:41:29;13.88;;;10.05;;
43540;SDS011;29549;40.386;-3.710;2023-10-09T00:41:45;14.23;;;10.20;;
43540;SDS011;29549;40.386;-3.710;2023-10-09T00:41:56;14.65;;;9.63;;
43540;SDS011;29549;40.386;-3.710;2023-10-09T00:42:09;16.80;;;9.40;;
43540;SDS011;29549;40.386;-3.710;2023-10-09T00:42:24;16.15;;;9.65;;
43540;SDS011;29549;40.386;-3.710;2023-10-09T00:42:39;14.90;;;9.27;;
43540;SDS011;29549;40.386;-3.710;2023-10-09T00:42:50;16.30;;;8.90;;
43540;SDS011;29549;40.386;-3.710;2023-10-09T00:43:05;14.88;;;8.50;;
43540;SDS011;29549;40.386;-3.710;2023-10-09T00:43:23;12.63;;;8.48;;
43540;SDS011;29549;40.386;-3.710;2023-10-09T00:43:38;12.13;;;8.43;;
43540;SDS011;29549;40.386;-3.710;2023-10-09T00:43:53;12.88;;;8.65;;
43540;SDS011;29549;40.386;-3.710;2023-10-09T00:44:04;13.47;;;8.40;;
43540;SDS011;29549;40.386;-3.710;2023-10-09T00:44:17;13.60;;;8.13;;
43540;SDS011;29549;40.386;-3.710;2023-10-09T00:44:28;13.15;;;7.50;;
43540;SDS011;29549;40.386;-3.710;2023-10-09T00:44:48;14.00;;;7.63;;
43540;SDS011;29549;40.386;-3.710;2023-10-09T00:44:59;14.63;;;8.02;;
43540;SDS011;29549;40.386;-3.710;2023-10-09T00:45:14;13.45;;;7.93;;
43540;SDS011;29549;40.386;-3.710;2023-10-09T00:45:37;12.95;;;7.88;;
43540;SDS011;29549;40.386;-3.710;2023-10-09T00:45:50;11.70;;;7.80;;
43540;SDS011;29549;40.386;-3.710;2023-10-09T00:46:01;13.18;;;7.85;;
43540;SDS011;29549;40.386;-3.710;2023-10-09T00:46:14;13.25;;;7.95;;
43540;SDS011;29549;40.386;-3.710;2023-10-09T00:46:31;11.77;;;8.15;;
43540;SDS011;29549;40.386;-3.710;2023-10-09T00:46:44;11.73;;;7.93;;
43540;SDS011;29549;40.386;-3.710;2023-10-09T00:46:57;13.50;;;8.35;;
43540;SDS011;29549;40.386;-3.710;2023-10-09T00:47:17;14.00;;;8.98;;
43540;SDS011;29549;40.386;-3.710;2023-10-09T00:47:31;13.70;;;8.93;;
43540;SDS011;29549;40.386;-3.710;2023-10-09T00:47:45;12.95;;;8.60;;
43540;SDS011;29549;40.386;-3.710;2023-10-09T00:47:57;12.25;;;8.15;;
43540;SDS011;29549;40.386;-3.710;2023-10-09T00:48:11;12.35;;;8.20;;
43540;SDS011;29549;40.386;-3.710;2023-10-09T00:48:33;14.45;;;8.65;;
43540;SDS011;29549;40.386;-3.710;2023-10-09T00:48:51;17.15;;;8.55;;
43540;SDS011;29549;40.386;-3.710;2023-10-09T00:49:07;14.57;;;8.25;;
43540;SDS011;29549;40.386;-3.710;2023-10-09T00:49:20;13.60;;;7.97;;
43540;SDS011;29549;40.386;-3.710;2023-10-09T00:49:32;13.63;;;8.02;;
43540;SDS011;29549;40.386;-3.710;2023-10-09T00:49:43;13.63;;;8.27;;
43540;SDS011;29549;40.386;-3.710;2023-10-09T00:49:57;15.07;;;8.87;;
43540;SDS011;29549;40.386;-3.710;2023-10-09T00:50:10;16.13;;;8.75;;
43540;SDS011;29549;40.386;-3.710;2023-10-09T00:50:27;13.23;;;7.88;;
43540;SDS011;29549;40.386;-3.710;2023-10-09T00:50:45;12.35;;;7.82;;
43540;SDS011;29549;40.386;-3.710;2023-10-09T00:51:02;10.32;;;7.50;;
43540;SDS011;29549;40.386;-3.710;2023-10-09T00:51:26;10.68;;;7.53;;
43540;SDS011;29549;40.386;-3.710;2023-10-09T00:51:40;11.80;;;7.50;;
43540;SDS011;29549;40.386;-3.710;2023-10-09T00:52:06;11.48;;;7.70;;
43540;SDS011;29549;40.386;-3.710;2023-10-09T00:52:30;12.10;;;7.60;;
43540;SDS011;29549;40.386;-3.710;2023-10-09T00:53:08;12.00;;;7.68;;
43540;SDS011;29549;40.386;-3.710;2023-10-09T00:53:22;14.15;;;8.02;;
43540;SDS011;29549;40.386;-3.710;2023-10-09T00:53:42;14.60;;;8.45;;
43540;SDS011;29549;40.386;-3.710;2023-10-09T00:54:08;13.48;;;8.10;;
43540;SDS011;29549;40.386;-3.710;2023-10-09T00:54:29;13.50;;;7.30;;
43540;SDS011;29549;40.386;-3.710;2023-10-09T00:54:51;14.27;;;7.78;;
43540;SDS011;29549;40.386;-3.710;2023-10-09T00:55:02;13.90;;;8.10;;
43540;SDS011;29549;40.386;-3.710;2023-10-09T00:55:31;13.73;;;8.10;;
43540;SDS011;29549;40.386;-3.710;2023-10-09T00:55:56;12.90;;;8.10;;
43540;SDS011;29549;40.386;-3.710;2023-10-09T00:56:08;12.55;;;8.23;;
43540;SDS011;29549;40.386;-3.710;2023-10-09T00:56:29;12.15;;;8.02;;
43540;SDS011;29549;40.386;-3.710;2023-10-09T00:56:48;15.05;;;8.35;;
43540;SDS011;29549;40.386;-3.710;2023-10-09T00:57:08;14.38;;;8.15;;
43540;SDS011;29549;40.386;-3.710;2023-10-09T00:57:23;12.95;;;7.68;;
43540;SDS011;29549;40.386;-3.710;2023-10-09T00:57:34;14.32;;;7.85;;
43540;SDS011;29549;40.386;-3.710;2023-10-09T00:57:48;15.88;;;7.90;;
43540;SDS011;29549;40.386;-3.710;2023-10-09T00:58:08;13.52;;;8.30;;
43540;SDS011;29549;40.386;-3.710;2023-10-09T00:58:24;13.35;;;8.02;;
43540;SDS011;29549;40.386;-3.710;2023-10-09T00:58:37;12.23;;;7.30;;
43540;SDS011;29549;40.386;-3.710;2023-10-09T00:58:48;11.68;;;7.22;;
43540;SDS011;29549;40.386;-3.710;2023-10-09T00:59:06;12.13;;;7.25;;
43540;SDS011;29549;40.386;-3.710;2023-10-09T00:59:18;13.52;;;7.07;;
43540;SDS011;29549;40.386;-3.710;2023-10-09T00:59:32;11.52;;;6.97;;
43540;SDS011;29549;40.386;-3.710;2023-10-09T00:59:44;9.65;;;6.68;;
43540;SDS011;29549;40.386;-3.710;2023-10-09T00:59:59;10.95;;;6.90;;
43540;SDS011;29549;40.386;-3.710;2023-10-09T01:00:10;14.48;;;7.72;;
43540;SDS011;29549;40.386;-3.710;2023-10-09T01:00:36;15.10;;;7.55;;
43540;SDS011;29549;40.386;-3.710;2023-10-09T01:00:56;12.63;;;7.03;;
43540;SDS011;29549;40.386;-3.710;2023-10-09T01:01:10;12.30;;;6.72;;
43540;SDS011;29549;40.386;-3.710;2023-10-09T01:01:28;12.27;;;6.75;;
43540;SDS011;29549;40.386;-3.710;2023-10-09T01:01:44;14.40;;;6.85;;
43540;SDS011;29549;40.386;-3.710;2023-10-09T01:02:14;10.38;;;6.30;;
43540;SDS011;29549;40.386;-3.710;2023-10-09T01:02:29;9.82;;;6.35;;
43540;SDS011;29549;40.386;-3.710;2023-10-09T01:02:45;11.07;;;6.30;;
43540;SDS011;29549;40.386;-3.710;2023-10-09T01:02:56;13.15;;;6.45;;
43540;SDS011;29549;40.386;-3.710;2023-10-09T01:03:28;10.15;;;6.70;;
43540;SDS011;29549;40.386;-3.710;2023-10-09T01:03:43;9.80;;;6.50;;
43540;SDS011;29549;40.386;-3.710;2023-10-09T01:03:55;9.32;;;6.45;;
43540;SDS011;29549;40.386;-3.710;2023-10-09T01:04:06;10.15;;;6.25;;
43540;SDS011;29549;40.386;-3.710;2023-10-09T01:04:20;9.70;;;5.90;;
43540;SDS011;29549;40.386;-3.710;2023-10-09T01:04:32;8.88;;;5.78;;
43540;SDS011;29549;40.386;-3.710;2023-10-09T01:04:47;11.38;;;6.22;;
43540;SDS011;29549;40.386;-3.710;2023-10-09T01:04:58;11.07;;;6.22;;
43540;SDS011;29549;40.386;-3.710;2023-10-09T01:05:09;12.32;;;6.60;;
43540;SDS011;29549;40.386;-3.710;2023-10-09T01:05:29;11.38;;;6.50;;
43540;SDS011;29549;40.386;-3.710;2023-10-09T01:05:39;9.57;;;6.25;;
43540;SDS011;29549;40.386;-3.710;2023-10-09T01:06:16;12.95;;;6.07;;
43540;SDS011;29549;40.386;-3.710;2023-10-09T01:06:31;11.85;;;6.38;;
43540;SDS011;29549;40.386;-3.710;2023-10-09T01:06:44;9.88;;;6.40;;
43540;SDS011;29549;40.386;-3.710;2023-10-09T01:06:57;8.68;;;6.25;;
43540;SDS011;29549;40.386;-3.710;2023-10-09T01:07:40;10.55;;;6.30;;
43540;SDS011;29549;40.386;-3.710;2023-10-09T01:07:54;11.35;;;6.10;;
43540;SDS011;29549;40.386;-3.710;2023-10-09T01:08:08;12.55;;;5.97;;
43540;SDS011;29549;40.386;-3.710;2023-10-09T01:08:35;9.68;;;6.28;;
43540;SDS011;29549;40.386;-3.710;2023-10-09T01:08:51;10.57;;;6.15;;
43540;SDS011;29549;40.386;-3.710;2023-10-09T01:09:17;12.02;;;6.00;;
43540;SDS011;29549;40.386;-3.710;2023-10-09T01:09:30;11.85;;;6.35;;
43540;SDS011;29549;40.386;-3.710;2023-10-09T01:09:47;10.80;;;6.72;;
43540;SDS011;29549;40.386;-3.710;2023-10-09T01:10:01;10.65;;;6.47;;
43540;SDS011;29549;40.386;-3.710;2023-10-09T01:10:43;9.60;;;6.10;;
43540;SDS011;29549;40.386;-3.710;2023-10-09T01:11:00;11.75;;;6.05;;
43540;SDS011;29549;40.386;-3.710;2023-10-09T01:11:20;11.90;;;6.40;;
43540;SDS011;29549;40.386;-3.710;2023-10-09T01:11:33;10.88;;;6.07;;
43540;SDS011;29549;40.386;-3.710;2023-10-09T01:11:44;9.70;;;5.57;;
43540;SDS011;29549;40.386;-3.710;2023-10-09T01:12:13;12.35;;;5.65;;
43540;SDS011;29549;40.386;-3.710;2023-10-09T01:12:27;9.90;;;5.53;;
43540;SDS011;29549;40.386;-3.710;2023-10-09T01:12:39;10.75;;;5.45;;
43540;SDS011;29549;40.386;-3.710;2023-10-09T01:12:54;10.90;;;5.80;;
43540;SDS011;29549;40.386;-3.710;2023-10-09T01:13:05;9.65;;;5.85;;
43540;SDS011;29549;40.386;-3.710;2023-10-09T01:13:19;8.05;;;5.65;;
43540;SDS011;29549;40.386;-3.710;2023-10-09T01:13:30;9.83;;;5.53;;
43540;SDS011;29549;40.386;-3.710;2023-10-09T01:13:59;9.65;;;5.57;;
43540;SDS011;29549;40.386;-3.710;2023-10-09T01:14:22;9.32;;;5.32;;
43540;SDS011;29549;40.386;-3.710;2023-10-09T01:14:33;9.98;;;5.40;;
43540;SDS011;29549;40.386;-3.710;2023-10-09T01:14:46;11.32;;;5.40;;
43540;SDS011;29549;40.386;-3.710;2023-10-09T01:15:05;10.73;;;5.40;;
43540;SDS011;29549;40.386;-3.710;2023-10-09T01:15:17;9.85;;;5.65;;
43540;SDS011;29549;40.386;-3.710;2023-10-09T01:15:45;10.80;;;6.03;;
43540;SDS011;29549;40.386;-3.710;2023-10-09T01:15:58;9.05;;;5.88;;
43540;SDS011;29549;40.386;-3.710;2023-10-09T01:16:11;8.57;;;5.57;;
43540;SDS011;29549;40.386;-3.710;2023-10-09T01:16:25;9.25;;;5.20;;
43540;SDS011;29549;40.386;-3.710;2023-10-09T01:16:41;10.50;;;5.35;;
43540;SDS011;29549;40.386;-3.710;2023-10-09T01:16:53;10.85;;;5.50;;
43540;SDS011;29549;40.386;-3.710;2023-10-09T01:17:04;9.02;;;5.50;;
43540;SDS011;29549;40.386;-3.710;2023-10-09T01:17:18;9.20;;;5.28;;
43540;SDS011;29549;40.386;-3.710;2023-10-09T01:17:45;9.30;;;5.60;;
43540;SDS011;29549;40.386;-3.710;2023-10-09T01:17:56;8.55;;;5.47;;
43540;SDS011;29549;40.386;-3.710;2023-10-09T01:18:09;9.60;;;5.20;;
43540;SDS011;29549;40.386;-3.710;2023-10-09T01:18:20;9.52;;;5.30;;
43540;SDS011;29549;40.386;-3.710;2023-10-09T01:18:30;10.47;;;5.50;;
43540;SDS011;29549;40.386;-3.710;2023-10-09T01:18:46;9.93;;;5.40;;
43540;SDS011;29549;40.386;-3.710;2023-10-09T01:19:02;9.27;;;5.10;;
43540;SDS011;29549;40.386;-3.710;2023-10-09T01:19:23;11.85;;;5.32;;
43540;SDS011;29549;40.386;-3.710;2023-10-09T01:19:34;11.52;;;5.53;;
43540;SDS011;29549;40.386;-3.710;2023-10-09T01:19:45;10.57;;;5.60;;
43540;SDS011;29549;40.386;-3.710;2023-10-09T01:19:57;8.60;;;5.43;;
43540;SDS011;29549;40.386;-3.710;2023-10-09T01:20:13;9.63;;;5.00;;
43540;SDS011;29549;40.386;-3.710;2023-10-09T01:20:27;9.48;;;4.90;;
43540;SDS011;29549;40.386;-3.710;2023-10-09T01:20:41;10.50;;;5.20;;
43540;SDS011;29549;40.386;-3.710;2023-10-09T01:20:55;11.18;;;5.32;;
43540;SDS011;29549;40.386;-3.710;2023-10-09T01:21:05;10.43;;;5.45;;
43540;SDS011;29549;40.386;-3.710;2023-10-09T01:21:20;11.27;;;5.75;;
43540;SDS011;29549;40.386;-3.710;2023-10-09T01:21:34;12.13;;;5.95;;
43540;SDS011;29549;40.386;-3.710;2023-10-09T01:21:44;9.88;;;5.88;;
43540;SDS011;29549;40.386;-3.710;2023-10-09T01:21:55;9.55;;;5.75;;
43540;SDS011;29549;40.386;-3.710;2023-10-09T01:22:12;10.10;;;5.72;;
43540;SDS011;29549;40.386;-3.710;2023-10-09T01:22:24;8.70;;;5.75;;
43540;SDS011;29549;40.386;-3.710;2023-10-09T01:22:35;9.40;;;5.30;;
43540;SDS011;29549;40.386;-3.710;2023-10-09T01:22:46;10.65;;;5.32;;
43540;SDS011;29549;40.386;-3.710;2023-10-09T01:23:02;10.77;;;5.20;;
43540;SDS011;29549;40.386;-3.710;2023-10-09T01:23:13;9.93;;;5.63;;
43540;SDS011;29549;40.386;-3.710;2023-10-09T01:23:24;12.43;;;5.90;;
43540;SDS011;29549;40.386;-3.710;2023-10-09T01:23:34;11.60;;;5.73;;
43540;SDS011;29549;40.386;-3.710;2023-10-09T01:23:53;9.30;;;5.47;;
43540;SDS011;29549;40.386;-3.710;2023-10-09T01:24:13;10.38;;;5.85;;
43540;SDS011;29549;40.386;-3.710;2023-10-09T01:24:26;10.98;;;5.75;;
43540;SDS011;29549;40.386;-3.710;2023-10-09T01:24:37;11.57;;;5.75;;
43540;SDS011;29549;40.386;-3.710;2023-10-09T01:24:49;13.73;;;5.93;;
43540;SDS011;29549;40.386;-3.710;2023-10-09T01:25:01;12.90;;;5.78;;
43540;SDS011;29549;40.386;-3.710;2023-10-09T01:25:16;12.13;;;5.80;;
43540;SDS011;29549;40.386;-3.710;2023-10-09T01:25:26;11.57;;;5.83;;
43540;SDS011;29549;40.386;-3.710;2023-10-09T01:25:51;9.48;;;5.25;;
43540;SDS011;29549;40.386;-3.710;2023-10-09T01:26:03;8.43;;;5.38;;
43540;SDS011;29549;40.386;-3.710;2023-10-09T01:26:13;7.88;;;5.45;;
43540;SDS011;29549;40.386;-3.710;2023-10-09T01:26:25;8.60;;;5.37;;
43540;SDS011;29549;40.386;-3.710;2023-10-09T01:26:37;8.82;;;5.45;;
43540;SDS011;29549;40.386;-3.710;2023-10-09T01:26:54;9.38;;;5.40;;
43540;SDS011;29549;40.386;-3.710;2023-10-09T01:27:09;8.75;;;5.35;;
43540;SDS011;29549;40.386;-3.710;2023-10-09T01:27:25;9.95;;;6.03;;
43540;SDS011;29549;40.386;-3.710;2023-10-09T01:27:42;10.80;;;5.80;;
43540;SDS011;29549;40.386;-3.710;2023-10-09T01:27:54;10.13;;;5.13;;
43540;SDS011;29549;40.386;-3.710;2023-10-09T01:28:07;10.68;;;5.38;;
43540;SDS011;29549;40.386;-3.710;2023-10-09T01:28:17;10.40;;;5.53;;
43540;SDS011;29549;40.386;-3.710;2023-10-09T01:28:28;10.10;;;5.53;;
43540;SDS011;29549;40.386;-3.710;2023-10-09T01:28:39;8.53;;;5.30;;
43540;SDS011;29549;40.386;-3.710;2023-10-09T01:28:49;9.00;;;5.28;;
43540;SDS011;29549;40.386;-3.710;2023-10-09T01:29:00;9.35;;;5.22;;
43540;SDS011;29549;40.386;-3.710;2023-10-09T01:29:17;11.48;;;5.40;;
43540;SDS011;29549;40.386;-3.710;2023-10-09T01:29:29;11.02;;;5.40;;
43540;SDS011;29549;40.386;-3.710;2023-10-09T01:29:40;10.18;;;5.30;;
43540;SDS011;29549;40.386;-3.710;2023-10-09T01:29:52;10.45;;;5.20;;
43540;SDS011;29549;40.386;-3.710;2023-10-09T01:30:02;11.00;;;5.20;;
43540;SDS011;29549;40.386;-3.710;2023-10-09T01:30:13;11.00;;;5.50;;
43540;SDS011;29549;40.386;-3.710;2023-10-09T01:30:24;9.27;;;5.72;;
43540;SDS011;29549;40.386;-3.710;2023-10-09T01:30:35;9.02;;;5.65;;
43540;SDS011;29549;40.386;-3.710;2023-10-09T01:30:51;8.68;;;5.40;;
43540;SDS011;29549;40.386;-3.710;2023-10-09T01:31:02;9.05;;;5.38;;
43540;SDS011;29549;40.386;-3.710;2023-10-09T01:31:13;9.90;;;5.35;;
43540;SDS011;29549;40.386;-3.710;2023-10-09T01:31:24;9.70;;;5.30;;
43540;SDS011;29549;40.386;-3.710;2023-10-09T01:32:02;8.07;;;5.22;;
43540;SDS011;29549;40.386;-3.710;2023-10-09T01:32:13;8.60;;;5.28;;